createdAt,value
2022-08-26T00:00:20.372Z,12.90
2022-08-26T00:02:48.614Z,13.00
2022-08-26T00:05:17.045Z,13.00
2022-08-26T00:07:46.558Z,12.90
2022-08-26T00:10:16.205Z,12.90
2022-08-26T00:12:45.661Z,12.90
2022-08-26T00:15:19.201Z,12.90
2022-08-26T00:17:49.095Z,13.00
2022-08-26T00:20:20.705Z,13.00
2022-08-26T00:22:48.933Z,13.00
2022-08-26T00:25:19.301Z,13.00
2022-08-26T00:27:48.242Z,12.90
2022-08-26T00:30:22.702Z,12.80
2022-08-26T00:32:53.370Z,12.80
2022-08-26T00:35:22.207Z,12.70
2022-08-26T00:37:51.614Z,12.70
2022-08-26T00:40:25.099Z,12.70
2022-08-26T00:42:53.982Z,12.70
2022-08-26T00:45:22.778Z,12.70
2022-08-26T00:47:54.374Z,12.70
2022-08-26T00:50:26.712Z,12.70
2022-08-26T00:52:57.637Z,12.80
2022-08-26T00:55:37.793Z,12.80
2022-08-26T00:58:08.489Z,12.70
2022-08-26T01:00:36.869Z,12.70
2022-08-26T01:03:05.576Z,12.60
2022-08-26T01:05:40.837Z,12.50
2022-08-26T01:08:09.027Z,12.50
2022-08-26T01:10:38.589Z,12.50
2022-08-26T01:13:11.263Z,12.50
2022-08-26T01:15:44.759Z,12.40
2022-08-26T01:18:15.027Z,12.30
2022-08-26T01:20:51.897Z,12.40
2022-08-26T01:23:31.481Z,12.40
2022-08-26T01:26:04.219Z,12.30
2022-08-26T01:28:35.925Z,12.30
2022-08-26T01:31:06.761Z,12.30
2022-08-26T01:33:42.532Z,12.20
2022-08-26T01:36:12.115Z,12.20
2022-08-26T01:38:44.224Z,12.20
2022-08-26T01:41:16.389Z,12.20
2022-08-26T01:43:52.038Z,12.20
2022-08-26T01:46:21.198Z,12.20
2022-08-26T01:48:54.438Z,12.20
2022-08-26T01:51:24.473Z,12.20
2022-08-26T01:53:54.572Z,12.10
2022-08-26T01:56:24.258Z,12.10
2022-08-26T01:58:57.054Z,12.10
2022-08-26T02:01:28.938Z,12.10
2022-08-26T02:04:04.561Z,12.20
2022-08-26T02:06:33.590Z,12.30
2022-08-26T02:09:05.525Z,12.20
2022-08-26T02:11:34.634Z,12.10
2022-08-26T02:14:10.242Z,12.10
2022-08-26T02:16:42.932Z,12.10
2022-08-26T02:19:17.284Z,12.00
2022-08-26T02:21:51.345Z,12.00
2022-08-26T02:24:27.316Z,12.00
2022-08-26T02:26:57.421Z,12.00
2022-08-26T02:29:31.987Z,12.00
2022-08-26T02:32:00.549Z,12.00
2022-08-26T02:34:33.237Z,12.00
2022-08-26T02:37:03.566Z,12.00
2022-08-26T02:39:35.017Z,11.90
2022-08-26T02:42:03.228Z,11.90
2022-08-26T02:44:31.369Z,11.90
2022-08-26T02:47:02.642Z,11.90
2022-08-26T02:49:31.365Z,11.90
2022-08-26T02:52:01.848Z,11.90
2022-08-26T02:54:30.476Z,12.00
2022-08-26T02:57:00.308Z,12.00
2022-08-26T02:59:29.267Z,12.00
2022-08-26T03:01:58.342Z,12.00
2022-08-26T03:04:26.680Z,12.00
2022-08-26T03:06:55.579Z,12.00
2022-08-26T03:09:24.221Z,11.90
2022-08-26T03:11:52.635Z,11.90
2022-08-26T03:14:23.844Z,11.90
2022-08-26T03:16:54.522Z,11.90
2022-08-26T03:19:24.581Z,11.90
2022-08-26T03:21:57.916Z,12.00
2022-08-26T03:24:26.680Z,11.90
2022-08-26T03:26:54.988Z,11.90
2022-08-26T03:29:42.879Z,12.00
2022-08-26T03:32:12.019Z,12.00
2022-08-26T03:34:40.246Z,12.00
2022-08-26T03:37:08.810Z,11.90
2022-08-26T03:39:38.348Z,12.00
2022-08-26T03:42:07.058Z,12.00
2022-08-26T03:44:42.034Z,12.00
2022-08-26T03:47:10.971Z,11.90
2022-08-26T03:49:39.636Z,11.90
2022-08-26T03:52:07.998Z,11.90
2022-08-26T03:54:36.502Z,11.90
2022-08-26T03:57:05.190Z,11.90
2022-08-26T03:59:34.133Z,12.00
2022-08-26T04:02:03.846Z,12.00
2022-08-26T04:04:40.609Z,12.10
2022-08-26T04:07:08.994Z,12.10
2022-08-26T04:09:37.304Z,12.10
2022-08-26T04:12:06.242Z,12.10
2022-08-26T04:14:35.685Z,12.20
2022-08-26T04:17:07.710Z,12.30
2022-08-26T04:19:36.462Z,12.50
2022-08-26T04:22:04.689Z,12.50
2022-08-26T04:24:33.425Z,12.50
2022-08-26T04:27:03.459Z,12.50
2022-08-26T04:29:31.730Z,12.40
2022-08-26T04:32:02.182Z,12.40
2022-08-26T04:34:32.842Z,12.40
2022-08-26T04:37:02.234Z,12.40
2022-08-26T04:39:31.016Z,12.50
2022-08-26T04:42:01.739Z,12.50
2022-08-26T04:44:32.171Z,12.60
2022-08-26T04:47:01.097Z,12.70
2022-08-26T04:49:35.243Z,12.80
2022-08-26T04:52:05.724Z,13.00
2022-08-26T04:54:34.397Z,12.90
2022-08-26T04:57:03.130Z,12.90
2022-08-26T04:59:34.061Z,12.80
2022-08-26T05:02:06.950Z,12.80
2022-08-26T05:04:37.065Z,12.90
2022-08-26T05:07:07.892Z,12.80
2022-08-26T05:09:38.129Z,12.90
2022-08-26T05:12:06.716Z,13.00
2022-08-26T05:14:35.245Z,13.00
2022-08-26T05:17:03.775Z,13.10
2022-08-26T05:19:33.091Z,13.00
2022-08-26T05:22:02.753Z,13.00
2022-08-26T05:24:31.225Z,13.10
2022-08-26T05:26:59.507Z,13.10
2022-08-26T05:29:28.253Z,13.10
2022-08-26T05:31:56.970Z,13.30
2022-08-26T05:34:30.235Z,13.30
2022-08-26T05:36:59.412Z,13.40
2022-08-26T05:39:29.111Z,13.50
2022-08-26T05:41:57.592Z,13.60
2022-08-26T05:44:26.321Z,13.60
2022-08-26T05:46:54.553Z,13.80
2022-08-26T05:49:26.367Z,13.80
2022-08-26T05:51:55.452Z,13.80
2022-08-26T05:54:23.646Z,13.90
2022-08-26T05:56:53.582Z,13.90
2022-08-26T05:59:24.636Z,14.00
2022-08-26T06:01:54.722Z,14.10
2022-08-26T06:04:27.264Z,14.30
2022-08-26T06:06:57.653Z,14.30
2022-08-26T06:09:27.477Z,14.40
2022-08-26T06:11:58.848Z,14.40
2022-08-26T06:14:27.191Z,14.70
2022-08-26T06:16:56.088Z,15.00
2022-08-26T06:19:24.358Z,15.40
2022-08-26T06:21:54.932Z,15.70
2022-08-26T06:24:41.154Z,15.90
2022-08-26T06:27:13.852Z,16.10
2022-08-26T06:29:43.542Z,16.30
2022-08-26T06:32:11.804Z,16.50
2022-08-26T06:34:40.078Z,16.70
2022-08-26T06:37:09.287Z,16.90
2022-08-26T06:39:41.072Z,17.10
2022-08-26T06:42:12.002Z,17.20
2022-08-26T06:44:41.726Z,17.40
2022-08-26T06:47:13.533Z,17.40
2022-08-26T06:49:41.777Z,17.50
2022-08-26T06:52:12.421Z,17.50
2022-08-26T06:54:44.273Z,17.50
2022-08-26T06:57:14.342Z,17.60
2022-08-26T06:59:45.463Z,17.70
2022-08-26T07:02:13.944Z,17.90
2022-08-26T07:04:42.322Z,18.00
2022-08-26T07:07:14.281Z,18.20
2022-08-26T07:09:42.756Z,18.50
2022-08-26T07:12:11.016Z,18.70
2022-08-26T07:14:40.953Z,18.90
2022-08-26T07:17:15.946Z,19.00
2022-08-26T07:19:45.071Z,19.10
2022-08-26T07:22:13.944Z,19.30
2022-08-26T07:24:42.777Z,19.40
2022-08-26T07:27:14.740Z,19.50
2022-08-26T07:29:44.886Z,19.60
2022-08-26T07:32:14.951Z,19.70
2022-08-26T07:34:44.587Z,19.80
2022-08-26T07:37:12.777Z,20.00
2022-08-26T07:39:43.284Z,20.10
2022-08-26T07:42:13.473Z,20.30
2022-08-26T07:44:44.928Z,20.30
2022-08-26T07:47:24.870Z,20.40
2022-08-26T07:49:56.439Z,20.50
2022-08-26T07:52:27.010Z,20.80
2022-08-26T07:54:56.076Z,21.40
2022-08-26T07:57:24.508Z,22.00
2022-08-26T07:59:55.185Z,22.30
2022-08-26T08:02:25.034Z,22.20
2022-08-26T08:04:54.658Z,22.50
2022-08-26T08:07:38.361Z,22.70
2022-08-26T08:10:09.936Z,23.20
2022-08-26T08:12:39.965Z,23.80
2022-08-26T08:15:11.715Z,24.00
2022-08-26T08:17:39.876Z,24.10
2022-08-26T08:20:09.598Z,23.60
2022-08-26T08:22:39.726Z,23.00
2022-08-26T08:25:10.492Z,22.80
2022-08-26T08:27:42.166Z,22.70
2022-08-26T08:30:13.810Z,22.40
2022-08-26T08:32:43.807Z,22.20
2022-08-26T08:35:13.447Z,23.00
2022-08-26T08:37:43.676Z,23.70
2022-08-26T08:40:18.589Z,24.60
2022-08-26T08:45:33.342Z,26.30
2022-08-26T08:48:07.926Z,26.30
2022-08-26T08:50:43.699Z,25.80
2022-08-26T08:53:16.561Z,25.00
2022-08-26T08:56:05.756Z,24.30
2022-08-26T08:58:47.215Z,23.80
2022-08-26T09:01:26.840Z,23.60
2022-08-26T09:04:06.321Z,24.10
2022-08-26T09:06:34.729Z,24.60
2022-08-26T09:09:04.826Z,25.10
2022-08-26T09:11:34.397Z,25.60
2022-08-26T09:14:02.974Z,25.90
2022-08-26T09:16:42.605Z,26.80
2022-08-26T09:19:19.229Z,27.20
2022-08-26T09:21:55.608Z,27.40
2022-08-26T09:24:28.392Z,27.70
2022-08-26T09:26:59.062Z,28.00
2022-08-26T09:29:30.617Z,28.20
2022-08-26T09:32:19.358Z,28.30
2022-08-26T09:34:59.711Z,27.80
2022-08-26T09:37:41.028Z,27.80
2022-08-26T09:40:24.917Z,27.10
2022-08-26T09:43:11.820Z,26.40
2022-08-26T09:45:50.070Z,26.00
2022-08-26T09:48:31.312Z,26.20
2022-08-26T09:51:01.844Z,26.60
2022-08-26T09:53:32.286Z,26.50
2022-08-26T09:56:17.349Z,26.60
2022-08-26T09:58:47.718Z,26.80
2022-08-26T10:01:26.535Z,27.10
2022-08-26T10:04:06.577Z,27.40
2022-08-26T10:06:40.706Z,27.60
2022-08-26T10:09:13.767Z,27.40
2022-08-26T10:11:47.291Z,27.60
2022-08-26T10:14:20.652Z,27.70
2022-08-26T10:16:53.557Z,29.00
2022-08-26T10:19:41.540Z,30.00
2022-08-26T10:22:23.675Z,29.10
2022-08-26T10:24:57.137Z,28.30
2022-08-26T10:27:33.109Z,27.60
2022-08-26T10:30:10.377Z,29.30
2022-08-26T10:32:41.698Z,30.20
2022-08-26T10:35:14.942Z,31.30
2022-08-26T10:37:46.999Z,31.60
2022-08-26T10:40:21.192Z,31.30
2022-08-26T10:42:54.413Z,31.90
2022-08-26T10:45:25.920Z,31.40
2022-08-26T10:47:58.721Z,31.60
2022-08-26T10:50:33.376Z,31.20
2022-08-26T10:53:09.178Z,31.20
2022-08-26T10:55:44.422Z,31.50
2022-08-26T10:58:29.424Z,32.30
2022-08-26T11:01:22.722Z,32.30
2022-08-26T11:03:58.207Z,33.00
2022-08-26T11:06:30.285Z,32.90
2022-08-26T11:09:01.145Z,33.10
2022-08-26T11:11:53.486Z,34.40
2022-08-26T11:14:53.028Z,33.70
2022-08-26T11:17:55.881Z,33.50
2022-08-26T11:20:35.419Z,34.60
2022-08-26T11:23:50.598Z,35.90
2022-08-26T11:26:35.383Z,35.50
2022-08-26T11:29:13.271Z,34.70
2022-08-26T11:31:57.062Z,33.70
2022-08-26T11:34:56.304Z,34.80
2022-08-26T11:37:36.593Z,36.00
2022-08-26T11:40:13.801Z,35.30
2022-08-26T11:42:45.384Z,35.50
2022-08-26T11:45:19.435Z,35.20
2022-08-26T11:47:49.377Z,36.10
2022-08-26T11:50:21.205Z,35.90
2022-08-26T11:52:57.345Z,35.40
2022-08-26T11:55:26.930Z,35.70
2022-08-26T11:57:57.688Z,36.30
2022-08-26T12:00:33.316Z,36.90
2022-08-26T12:03:08.132Z,37.50
2022-08-26T12:05:40.086Z,37.30
2022-08-26T12:08:11.090Z,36.40
2022-08-26T12:10:41.877Z,36.10
2022-08-26T12:13:18.917Z,35.30
2022-08-26T12:15:55.862Z,35.30
2022-08-26T12:18:29.355Z,35.50
2022-08-26T12:21:00.729Z,36.30
2022-08-26T12:23:45.417Z,35.90
2022-08-26T12:26:22.712Z,33.60
2022-08-26T12:28:55.365Z,32.20
2022-08-26T12:31:32.482Z,33.00
2022-08-26T12:34:03.642Z,33.70
2022-08-26T12:36:34.560Z,34.90
2022-08-26T12:39:11.409Z,35.70
2022-08-26T12:41:59.716Z,36.40
2022-08-26T12:44:36.645Z,37.40
2022-08-26T12:47:10.040Z,37.10
2022-08-26T12:49:40.602Z,36.50
2022-08-26T12:52:29.950Z,37.00
2022-08-26T12:55:01.348Z,37.20
2022-08-26T12:57:35.309Z,36.70
2022-08-26T13:00:33.141Z,35.90
2022-08-26T13:03:02.804Z,36.50
2022-08-26T13:05:35.155Z,35.90
2022-08-26T13:08:15.818Z,36.10
2022-08-26T13:10:46.346Z,35.80
2022-08-26T13:13:16.043Z,35.70
2022-08-26T13:15:44.867Z,35.40
2022-08-26T13:18:13.064Z,34.80
2022-08-26T13:20:44.904Z,34.40
2022-08-26T13:23:13.562Z,34.10
2022-08-26T13:25:42.040Z,33.40
2022-08-26T13:28:10.257Z,32.20
2022-08-26T13:30:40.787Z,30.60
2022-08-26T13:33:10.006Z,29.80
2022-08-26T13:35:40.786Z,28.90
2022-08-26T13:38:22.364Z,28.00
2022-08-26T13:41:02.750Z,27.60
2022-08-26T13:43:33.110Z,26.80
2022-08-26T13:46:03.113Z,26.00
2022-08-26T13:48:31.889Z,25.60
2022-08-26T13:51:00.258Z,25.40
2022-08-26T13:53:30.487Z,25.20
2022-08-26T13:55:59.588Z,25.10
2022-08-26T13:58:28.434Z,25.00
2022-08-26T14:00:58.362Z,24.90
2022-08-26T14:03:28.177Z,24.90
2022-08-26T14:05:57.100Z,24.80
2022-08-26T14:08:25.779Z,24.60
2022-08-26T14:10:54.062Z,24.70
2022-08-26T14:13:22.755Z,24.80
2022-08-26T14:15:51.490Z,24.80
2022-08-26T14:18:24.203Z,24.80
2022-08-26T14:20:56.159Z,24.80
2022-08-26T14:23:24.849Z,24.80
2022-08-26T14:25:53.669Z,24.80
2022-08-26T14:28:21.860Z,24.90
2022-08-26T14:30:54.594Z,24.90
2022-08-26T14:33:26.761Z,24.90
2022-08-26T14:36:17.726Z,24.60
2022-08-26T14:38:46.042Z,24.60
2022-08-26T14:41:16.465Z,24.80
2022-08-26T14:43:50.524Z,24.90
2022-08-26T14:46:19.404Z,24.80
2022-08-26T14:48:47.618Z,24.80
2022-08-26T14:51:17.338Z,24.80
2022-08-26T14:54:03.160Z,25.00
2022-08-26T14:56:32.616Z,25.00
2022-08-26T14:59:01.003Z,25.00
2022-08-26T15:01:31.075Z,24.80
2022-08-26T15:03:59.980Z,24.80
2022-08-26T15:06:31.806Z,24.60
2022-08-26T15:09:00.112Z,24.60
2022-08-26T15:11:28.735Z,24.50
2022-08-26T15:13:57.353Z,24.50
2022-08-26T15:16:25.733Z,24.30
2022-08-26T15:18:54.757Z,24.30
2022-08-26T15:21:23.757Z,24.20
2022-08-26T15:23:54.906Z,24.20
2022-08-26T15:26:24.448Z,24.10
2022-08-26T15:28:52.930Z,24.00
2022-08-26T15:31:25.674Z,24.20
2022-08-26T15:33:54.209Z,24.10
2022-08-26T15:36:22.486Z,24.00
2022-08-26T15:38:52.409Z,23.80
2022-08-26T15:41:20.727Z,23.70
2022-08-26T15:43:48.923Z,23.70
2022-08-26T15:46:17.304Z,23.80
2022-08-26T15:48:45.735Z,23.60
2022-08-26T15:51:21.995Z,23.50
2022-08-26T15:53:52.665Z,23.40
2022-08-26T15:56:20.865Z,23.20
2022-08-26T15:58:51.061Z,23.20
2022-08-26T16:01:27.425Z,23.20
2022-08-26T16:03:57.462Z,23.10
2022-08-26T16:06:29.383Z,23.00
2022-08-26T16:09:00.066Z,22.90
2022-08-26T16:11:29.306Z,22.80
2022-08-26T16:13:57.990Z,22.70
2022-08-26T16:16:27.045Z,22.70
2022-08-26T16:18:55.264Z,22.80
2022-08-26T16:21:25.548Z,22.70
2022-08-26T16:23:54.170Z,22.60
2022-08-26T16:26:29.474Z,22.60
2022-08-26T16:28:58.001Z,22.50
2022-08-26T16:31:26.430Z,22.50
2022-08-26T16:33:54.661Z,22.50
2022-08-26T16:36:23.384Z,22.40
2022-08-26T16:38:56.178Z,22.40
2022-08-26T16:41:28.385Z,22.40
2022-08-26T16:43:57.238Z,22.30
2022-08-26T16:46:26.694Z,22.20
2022-08-26T16:48:55.659Z,22.10
2022-08-26T16:51:27.042Z,22.00
2022-08-26T16:53:57.129Z,22.00
2022-08-26T16:56:33.675Z,21.90
2022-08-26T16:59:03.269Z,21.70
2022-08-26T17:01:31.559Z,21.60
2022-08-26T17:03:59.870Z,21.60
2022-08-26T17:06:28.342Z,21.40
2022-08-26T17:08:56.622Z,21.30
2022-08-26T17:11:26.203Z,21.20
2022-08-26T17:13:54.865Z,21.10
2022-08-26T17:16:26.608Z,21.10
2022-08-26T17:18:56.973Z,21.00
2022-08-26T17:21:25.385Z,21.00
2022-08-26T17:23:54.056Z,20.80
2022-08-26T17:26:22.693Z,20.80
2022-08-26T17:28:52.649Z,20.70
2022-08-26T17:31:21.629Z,20.60
2022-08-26T17:33:53.957Z,20.40
2022-08-26T17:36:23.081Z,20.40
2022-08-26T17:38:56.960Z,20.30
2022-08-26T17:41:25.924Z,20.20
2022-08-26T17:43:55.923Z,20.10
2022-08-26T17:46:25.341Z,20.00
2022-08-26T17:48:53.558Z,20.00
2022-08-26T17:51:22.762Z,19.90
2022-08-26T17:53:52.100Z,19.80
2022-08-26T17:56:23.920Z,19.70
2022-08-26T17:58:53.351Z,19.60
2022-08-26T18:01:26.107Z,19.60
2022-08-26T18:04:00.166Z,19.50
2022-08-26T18:06:30.685Z,19.40
2022-08-26T18:09:00.614Z,19.40
2022-08-26T18:11:29.626Z,19.20
2022-08-26T18:13:58.026Z,19.20
2022-08-26T18:16:29.659Z,19.20
2022-08-26T18:18:58.529Z,19.10
2022-08-26T18:21:28.561Z,19.00
2022-08-26T18:23:57.181Z,19.00
2022-08-26T18:26:28.713Z,18.90
2022-08-26T18:28:57.284Z,18.80
2022-08-26T18:31:27.668Z,18.70
2022-08-26T18:33:56.376Z,18.70
2022-08-26T18:36:27.748Z,18.60
2022-08-26T18:38:56.819Z,18.50
2022-08-26T18:41:27.776Z,18.50
2022-08-26T18:43:56.870Z,18.40
2022-08-26T18:46:28.376Z,18.40
2022-08-26T18:48:58.553Z,18.40
2022-08-26T18:51:29.769Z,18.30
2022-08-26T18:53:58.918Z,18.30
2022-08-26T18:56:27.543Z,18.30
2022-08-26T18:58:56.129Z,18.20
2022-08-26T19:01:27.531Z,18.20
2022-08-26T19:03:58.696Z,18.10
2022-08-26T19:06:29.582Z,18.10
2022-08-26T19:08:58.007Z,18.00
2022-08-26T19:11:32.651Z,18.00
2022-08-26T19:14:07.267Z,18.00
2022-08-26T19:16:38.962Z,17.90
2022-08-26T19:19:09.118Z,17.90
2022-08-26T19:21:38.368Z,17.80
2022-08-26T19:24:12.403Z,17.80
2022-08-26T19:26:40.756Z,17.80
2022-08-26T19:29:09.401Z,17.70
2022-08-26T19:31:37.751Z,17.80
2022-08-26T19:34:06.724Z,17.70
2022-08-26T19:36:37.847Z,17.80
2022-08-26T19:39:07.795Z,17.80
2022-08-26T19:41:39.101Z,17.70
2022-08-26T19:44:09.622Z,17.70
2022-08-26T19:49:12.778Z,17.70
2022-08-26T19:51:42.370Z,17.60
2022-08-26T19:54:10.639Z,17.60
2022-08-26T19:56:38.879Z,17.60
2022-08-26T19:59:07.113Z,17.60
2022-08-26T20:01:35.372Z,17.60
2022-08-26T20:04:04.547Z,17.60
2022-08-26T20:06:32.749Z,17.50
2022-08-26T20:09:02.368Z,17.50
2022-08-26T20:11:31.266Z,17.50
2022-08-26T20:14:00.507Z,17.50
2022-08-26T20:16:28.726Z,17.50
2022-08-26T20:19:14.621Z,17.50
2022-08-26T20:21:43.024Z,17.50
2022-08-26T20:24:15.906Z,17.50
2022-08-26T20:26:45.637Z,17.50
2022-08-26T20:29:18.012Z,17.50
2022-08-26T20:31:46.370Z,17.50
2022-08-26T20:34:18.615Z,17.60
2022-08-26T20:36:48.429Z,17.60
2022-08-26T20:39:19.877Z,17.70
2022-08-26T20:41:48.616Z,17.70
2022-08-26T20:44:17.853Z,17.70
2022-08-26T20:46:46.780Z,17.70
2022-08-26T20:49:15.449Z,17.60
2022-08-26T20:51:43.989Z,17.60
2022-08-26T20:54:13.218Z,17.50
2022-08-26T20:56:43.065Z,17.50
2022-08-26T20:59:11.509Z,17.50
2022-08-26T21:01:42.313Z,17.40
2022-08-26T21:04:14.446Z,17.40
2022-08-26T21:06:48.981Z,17.40
2022-08-26T21:09:21.787Z,17.40
2022-08-26T21:11:52.233Z,17.40
2022-08-26T21:14:23.213Z,17.40
2022-08-26T21:16:54.222Z,17.40
2022-08-26T21:19:22.605Z,17.40
2022-08-26T21:21:50.822Z,17.40
2022-08-26T21:24:19.136Z,17.40
2022-08-26T21:26:47.945Z,17.40
2022-08-26T21:29:17.497Z,17.50
2022-08-26T21:31:46.898Z,17.50
2022-08-26T21:34:16.064Z,17.50
2022-08-26T21:36:44.261Z,17.50
2022-08-26T21:39:12.589Z,17.50
2022-08-26T21:41:41.525Z,17.60
2022-08-26T21:44:10.458Z,17.70
2022-08-26T21:46:40.479Z,17.70
2022-08-26T21:49:11.330Z,17.80
2022-08-26T21:51:43.193Z,17.80
2022-08-26T21:54:12.800Z,17.80
2022-08-26T21:56:46.840Z,18.00
2022-08-26T21:59:16.746Z,18.00
2022-08-26T22:01:46.618Z,18.10
2022-08-26T22:04:15.590Z,18.10
2022-08-26T22:06:46.597Z,18.20
2022-08-26T22:09:17.275Z,18.20
2022-08-26T22:11:46.521Z,18.30
2022-08-26T22:14:16.079Z,18.30
2022-08-26T22:16:50.245Z,18.40
2022-08-26T22:19:20.152Z,18.50
2022-08-26T22:21:49.535Z,18.50
2022-08-26T22:24:18.555Z,18.50
2022-08-26T22:26:47.330Z,18.60
2022-08-26T22:29:16.085Z,18.60
2022-08-26T22:31:46.071Z,18.70
2022-08-26T22:34:17.456Z,18.70
2022-08-26T22:36:48.348Z,18.70
2022-08-26T22:39:22.664Z,18.70
2022-08-26T22:41:51.578Z,18.70
2022-08-26T22:44:21.467Z,18.80
2022-08-26T22:46:54.235Z,18.80
2022-08-26T22:49:23.275Z,18.80
2022-08-26T22:51:52.077Z,18.80
2022-08-26T22:54:20.845Z,18.80
2022-08-26T22:56:49.222Z,18.90
2022-08-26T22:59:17.994Z,18.90
2022-08-26T23:01:47.594Z,18.80
2022-08-26T23:04:17.410Z,18.80
2022-08-26T23:06:47.672Z,18.80
2022-08-26T23:09:18.409Z,18.70
2022-08-26T23:11:47.767Z,18.60
2022-08-26T23:14:17.273Z,18.60
2022-08-26T23:16:45.642Z,18.60
2022-08-26T23:19:15.006Z,18.50
2022-08-26T23:21:45.521Z,18.50
2022-08-26T23:24:14.787Z,18.50
2022-08-26T23:26:43.834Z,18.50
2022-08-26T23:29:15.740Z,18.40
2022-08-26T23:31:44.572Z,18.40
2022-08-26T23:34:31.813Z,18.50
2022-08-26T23:37:01.546Z,18.50
2022-08-26T23:39:30.293Z,18.50
2022-08-26T23:41:58.681Z,18.50
2022-08-26T23:44:27.024Z,18.60
2022-08-26T23:46:55.890Z,18.60
2022-08-26T23:49:24.857Z,18.60
2022-08-26T23:52:11.285Z,18.60
2022-08-26T23:54:42.005Z,18.70
2022-08-26T23:57:11.030Z,18.70
2022-08-26T23:59:39.857Z,18.70
